Time;durP1;ratioP1;P1;durP2;ratioP2;P2;SDS_P1;SDS_P2;PMS_P1;PMS_P2;Temp;Humidity;BMP_temperature;BMP_pressure;BME280_temperature;BME280_humidity;BME280_pressure;Samples;Min_cycle;Max_cycle;Signal;HPM_P1;HPM_P2
2021/11/01 00:01:50;;;;;;;31.67;4.10;;;9.80;99.90;;;;;;4998723;28;20042;-89
2021/11/01 00:04:16;;;;;;;37.92;3.92;;;9.80;99.90;;;;;;5015541;28;20045;-89
2021/11/01 00:06:42;;;;;;;45.85;4.57;;;9.80;99.90;;;;;;4998852;28;20037;-88
2021/11/01 00:09:07;;;;;;;33.75;3.75;;;9.80;99.90;;;;;;5014895;28;20077;-89
2021/11/01 00:11:33;;;;;;;36.60;3.67;;;9.80;99.90;;;;;;4982767;28;20037;-90
2021/11/01 00:13:59;;;;;;;35.15;4.55;;;9.80;99.90;;;;;;4998161;28;20041;-88
2021/11/01 00:16:25;;;;;;;39.47;4.63;;;9.80;99.90;;;;;;4998371;28;20045;-89
2021/11/01 00:18:50;;;;;;;39.70;4.93;;;9.90;99.90;;;;;;4997934;28;20449;-88
2021/11/01 00:21:16;;;;;;;27.05;3.38;;;9.90;99.90;;;;;;5014554;28;20492;-88
2021/11/01 00:23:44;;;;;;;25.70;3.65;;;9.80;99.90;;;;;;4998044;28;20060;-89
2021/11/01 00:26:10;;;;;;;39.33;4.70;;;9.80;99.90;;;;;;4998150;28;20442;-90
2021/11/01 00:28:36;;;;;;;33.60;4.07;;;9.70;99.90;;;;;;4997540;28;20037;-89
2021/11/01 00:31:02;;;;;;;49.70;4.45;;;9.80;99.90;;;;;;5014222;28;20051;-90
2021/11/01 00:33:28;;;;;;;33.67;4.20;;;9.80;99.90;;;;;;4998213;28;20045;-89
2021/11/01 00:35:55;;;;;;;45.38;4.18;;;9.70;99.90;;;;;;5014603;28;20041;-91
2021/11/01 00:38:20;;;;;;;35.45;3.78;;;9.70;99.90;;;;;;4982781;28;20135;-89
2021/11/01 00:40:46;;;;;;;42.88;5.38;;;9.70;99.90;;;;;;5014835;28;20124;-90
2021/11/01 00:43:12;;;;;;;33.58;3.63;;;9.70;99.90;;;;;;5014452;28;20053;-89
2021/11/01 00:45:37;;;;;;;37.05;4.07;;;9.70;99.90;;;;;;4998580;28;20152;-89
2021/11/01 00:48:04;;;;;;;39.00;3.85;;;9.70;99.90;;;;;;4981547;28;20045;-88
2021/11/01 00:50:32;;;;;;;36.42;3.78;;;9.70;99.90;;;;;;4997776;28;20042;-90
2021/11/01 00:52:59;;;;;;;37.65;4.93;;;9.70;99.90;;;;;;4997800;28;20115;-89
2021/11/01 00:55:36;;;;;;;34.92;3.67;;;9.60;99.90;;;;;;4998285;28;20041;-88
2021/11/01 00:58:03;;;;;;;39.30;4.22;;;9.60;99.90;;;;;;5014442;28;20535;-89
2021/11/01 01:00:29;;;;;;;33.55;3.92;;;9.60;99.90;;;;;;5014854;28;20052;-88
2021/11/01 01:02:56;;;;;;;37.08;4.55;;;9.50;99.90;;;;;;4998093;28;20381;-88
2021/11/01 01:05:22;;;;;;;34.60;3.75;;;9.50;99.90;;;;;;4998752;28;20145;-90
2021/11/01 01:07:48;;;;;;;38.33;4.15;;;9.50;99.90;;;;;;4999234;28;20080;-88
2021/11/01 01:10:14;;;;;;;26.08;3.38;;;9.50;99.90;;;;;;5015499;28;20060;-90
2021/11/01 01:12:44;;;;;;;27.08;5.65;;;9.40;99.90;;;;;;4999501;28;20481;-89
2021/11/01 01:15:15;;;;;;;;;;;9.40;99.90;;;;;;4999299;28;20048;-89
2021/11/01 01:17:42;;;;;;;39.47;4.68;;;9.40;99.90;;;;;;4999514;28;20002;-89
2021/11/01 01:20:11;;;;;;;37.03;5.50;;;9.30;99.90;;;;;;5015395;28;20111;-90
2021/11/01 01:22:37;;;;;;;34.22;4.57;;;9.30;99.90;;;;;;4998312;28;20045;-88
2021/11/01 01:25:14;;;;;;;38.20;5.28;;;9.30;99.90;;;;;;4998392;28;20132;-89
2021/11/01 01:27:44;;;;;;;;;;;9.30;99.90;;;;;;5015398;28;20120;-89
2021/11/01 01:30:12;;;;;;;35.28;4.20;;;9.20;99.90;;;;;;5002069;28;20011;-89
2021/11/01 01:32:38;;;;;;;39.58;4.13;;;9.10;99.90;;;;;;5002351;28;20537;-89
2021/11/01 01:35:05;;;;;;;34.38;4.25;;;9.20;99.90;;;;;;5018085;28;20140;-88
2021/11/01 01:37:31;;;;;;;41.35;4.93;;;9.20;99.90;;;;;;5001537;28;20068;-90
2021/11/01 01:39:57;;;;;;;34.90;4.95;;;9.10;99.90;;;;;;4985430;28;20041;-89
2021/11/01 01:42:22;;;;;;;39.40;4.95;;;9.10;99.90;;;;;;5002092;28;20042;-90
2021/11/01 01:44:48;;;;;;;29.42;3.85;;;9.10;99.90;;;;;;5001998;28;20037;-89
2021/11/01 01:47:14;;;;;;;24.98;2.97;;;9.00;99.90;;;;;;5001196;28;20073;-91
2021/11/01 01:49:40;;;;;;;31.33;3.58;;;9.00;99.90;;;;;;5018081;28;20088;-89
2021/11/01 01:52:06;;;;;;;28.05;3.85;;;9.10;99.90;;;;;;5001391;28;20045;-89
2021/11/01 01:54:32;;;;;;;27.52;4.03;;;9.00;99.90;;;;;;5001387;28;20481;-89
2021/11/01 01:56:57;;;;;;;31.70;4.10;;;9.00;99.90;;;;;;4985146;28;20045;-90
2021/11/01 01:59:23;;;;;;;36.17;4.47;;;9.00;99.90;;;;;;4985274;28;20045;-88
2021/11/01 02:01:50;;;;;;;26.60;3.55;;;8.90;99.90;;;;;;5001193;28;20077;-88
2021/11/01 02:04:21;;;;;;;33.60;4.97;;;8.90;99.90;;;;;;4984922;28;20053;-87
2021/11/01 02:07:32;;;;;;;39.53;4.25;;;8.90;99.90;;;;;;5017538;28;20480;-87
2021/11/01 02:10:12;;;;;;;36.20;3.63;;;8.90;99.90;;;;;;4994373;28;20127;-88
2021/11/01 02:12:46;;;;;;;29.67;3.35;;;8.80;99.90;;;;;;5017319;28;20048;-87
2021/11/01 02:15:18;;;;;;;45.47;4.25;;;8.90;99.90;;;;;;5017463;28;20491;-87
2021/11/01 02:17:44;;;;;;;29.52;3.22;;;8.90;99.90;;;;;;5017743;28;20128;-87
2021/11/01 02:20:26;;;;;;;27.17;3.88;;;8.80;99.90;;;;;;5017220;28;20049;-88
2021/11/01 02:23:04;;;;;;;32.30;3.55;;;8.80;99.90;;;;;;5000737;28;20095;-89
2021/11/01 02:25:39;;;;;;;42.17;3.75;;;8.80;99.90;;;;;;5016810;28;20048;-89
2021/11/01 02:28:06;;;;;;;22.58;2.80;;;8.80;99.90;;;;;;5000322;28;20050;-89
2021/11/01 02:30:33;;;;;;;26.80;4.15;;;8.80;99.90;;;;;;5001120;28;20041;-88
2021/11/01 02:32:58;;;;;;;26.17;3.83;;;8.70;99.90;;;;;;5000730;28;20045;-90
2021/11/01 02:35:25;;;;;;;45.80;3.88;;;8.80;99.90;;;;;;5000944;28;20053;-89
2021/11/01 02:37:51;;;;;;;32.60;4.43;;;8.70;99.90;;;;;;5017105;28;20384;-89
2021/11/01 02:40:17;;;;;;;30.23;3.70;;;8.80;99.90;;;;;;4999436;28;20052;-88
2021/11/01 02:42:44;;;;;;;34.05;4.90;;;8.70;99.90;;;;;;4984297;28;20041;-89
2021/11/01 02:45:13;;;;;;;33.25;3.88;;;8.70;99.90;;;;;;4984178;28;20087;-89
2021/11/01 02:47:39;;;;;;;34.83;3.83;;;8.70;99.90;;;;;;5016377;28;20377;-89
2021/11/01 02:50:08;;;;;;;31.90;4.20;;;8.70;99.90;;;;;;4999408;28;20092;-90
2021/11/01 02:52:35;;;;;;;34.55;4.07;;;8.60;99.90;;;;;;5016703;28;20059;-90
2021/11/01 02:55:04;;;;;;;41.13;4.03;;;8.60;99.90;;;;;;5016560;28;20084;-92
2021/11/01 02:57:30;;;;;;;29.37;2.73;;;8.60;99.90;;;;;;5000678;28;20068;-89
2021/11/01 02:59:56;;;;;;;26.50;3.42;;;8.60;99.90;;;;;;5000494;28;20053;-88
2021/11/01 03:02:22;;;;;;;24.60;3.30;;;8.60;99.90;;;;;;4984299;28;20095;-91
2021/11/01 03:04:48;;;;;;;35.45;3.72;;;8.60;99.90;;;;;;5000686;28;20041;-89
2021/11/01 03:07:16;;;;;;;31.13;3.75;;;8.60;99.90;;;;;;4983619;28;20388;-90
2021/11/01 03:09:45;;;;;;;34.25;3.22;;;8.60;99.90;;;;;;5016519;28;20045;-90
2021/11/01 03:12:12;;;;;;;28.55;3.13;;;8.50;99.90;;;;;;5016197;28;20465;-89
2021/11/01 03:14:46;;;;;;;40.30;4.28;;;8.50;99.90;;;;;;5016430;28;20408;-89
2021/11/01 03:17:15;;;;;;;38.28;4.07;;;8.50;99.90;;;;;;4999762;28;20044;-90
2021/11/01 03:19:45;;;;;;;33.55;3.38;;;8.40;99.90;;;;;;5016187;28;20042;-89
2021/11/01 03:22:11;;;;;;;31.25;3.65;;;8.50;99.90;;;;;;5015284;28;20046;-88
2021/11/01 03:24:41;;;;;;;35.45;3.53;;;8.50;99.90;;;;;;4999223;28;20053;-88
2021/11/01 03:27:07;;;;;;;26.15;3.45;;;8.50;99.90;;;;;;5015533;28;20063;-89
2021/11/01 03:29:34;;;;;;;26.67;3.05;;;8.40;99.90;;;;;;4999178;28;20049;-89
2021/11/01 03:32:02;;;;;;;26.27;2.78;;;8.40;99.90;;;;;;4998909;28;20037;-90
2021/11/01 03:34:29;;;;;;;26.50;3.08;;;8.30;99.90;;;;;;5015285;28;20052;-88
2021/11/01 03:36:59;;;;;;;23.42;2.75;;;8.40;99.90;;;;;;5015822;28;20481;-89
2021/11/01 03:39:25;;;;;;;;;;;8.40;99.90;;;;;;5015479;28;20037;-89
2021/11/01 03:41:52;;;;;;;20.60;2.72;;;8.30;99.90;;;;;;4983598;28;19917;-88
2021/11/01 03:44:24;;;;;;;29.05;2.90;;;8.30;99.90;;;;;;5015599;28;20048;-90
2021/11/01 03:46:55;;;;;;;30.33;4.05;;;8.30;99.90;;;;;;4999724;28;20049;-89
2021/11/01 03:49:21;;;;;;;;;;;8.30;99.90;;;;;;5000314;28;20377;-89
2021/11/01 03:52:02;;;;;;;41.67;3.47;;;8.30;99.90;;;;;;4982940;28;19976;-88
2021/11/01 03:54:27;;;;;;;26.67;3.65;;;8.30;99.90;;;;;;5014986;28;20046;-89
2021/11/01 03:56:54;;;;;;;25.85;4.22;;;8.30;99.90;;;;;;5015382;28;20041;-88
2021/11/01 03:59:20;;;;;;;25.40;3.17;;;8.30;99.90;;;;;;4998318;28;20037;-89
2021/11/01 04:01:46;;;;;;;21.33;2.67;;;8.20;99.90;;;;;;4998835;28;20103;-89
2021/11/01 04:04:13;;;;;;;28.23;4.78;;;8.20;99.90;;;;;;4997854;28;20052;-88
2021/11/01 04:06:41;;;;;;;26.13;3.47;;;8.20;99.90;;;;;;4982642;28;20469;-90
2021/11/01 04:09:08;;;;;;;34.03;4.20;;;8.20;99.90;;;;;;5015613;28;20661;-90
2021/11/01 04:11:39;;;;;;;32.92;3.58;;;8.20;99.90;;;;;;4999401;28;20049;-92
2021/11/01 04:14:12;;;;;;;32.47;5.53;;;8.20;99.90;;;;;;4999284;28;20084;-92
2021/11/01 04:16:44;;;;;;;30.27;3.42;;;8.20;99.90;;;;;;4983874;28;20049;-88
2021/11/01 04:21:47;;;;;;;21.40;3.30;;;8.20;99.90;;;;;;5015437;28;20049;-89
2021/11/01 04:24:15;;;;;;;32.05;3.97;;;8.20;99.90;;;;;;5014189;28;20083;-89
2021/11/01 04:26:43;;;;;;;21.85;3.05;;;8.10;99.90;;;;;;5015489;28;20563;-89
2021/11/01 04:29:10;;;;;;;25.25;3.35;;;8.20;99.90;;;;;;5015297;28;20048;-89
2021/11/01 04:31:38;;;;;;;32.85;3.67;;;8.10;99.90;;;;;;4999117;28;20072;-88
2021/11/01 04:34:26;;;;;;;26.95;3.25;;;8.10;99.90;;;;;;5015233;28;20084;-88
2021/11/01 04:36:54;;;;;;;24.13;4.07;;;8.10;99.90;;;;;;4998773;28;20095;-90
2021/11/01 04:55:11;;;;;;;16.88;2.97;;;8.00;99.90;;;;;;5000024;28;20559;-90
2021/11/01 04:57:38;;;;;;;17.80;2.38;;;8.00;99.90;;;;;;5014592;28;20073;-91
2021/11/01 05:00:06;;;;;;;25.70;3.22;;;8.00;99.90;;;;;;4998119;28;20045;-89
2021/11/01 05:02:32;;;;;;;15.13;3.35;;;8.00;99.90;;;;;;5014515;28;20469;-89
2021/11/01 05:04:59;;;;;;;18.20;3.15;;;8.00;99.90;;;;;;5002089;28;20051;-89
2021/11/01 05:07:27;;;;;;;21.10;3.22;;;8.10;99.90;;;;;;5001278;28;20092;-89
2021/11/01 05:10:13;;;;;;;18.42;2.80;;;8.00;99.90;;;;;;5001624;28;20041;-89
2021/11/01 05:12:41;;;;;;;15.98;2.50;;;8.10;99.90;;;;;;4988162;28;20056;-89
2021/11/01 05:15:10;;;;;;;11.05;2.17;;;8.00;99.90;;;;;;5002163;28;20041;-89
2021/11/01 05:20:39;;;;;;;26.77;3.38;;;8.00;99.90;;;;;;4987350;28;20432;-88
2021/11/01 05:25:54;;;;;;;18.27;2.42;;;8.00;99.90;;;;;;5003734;28;20041;-87
2021/11/01 05:28:29;;;;;;;21.50;2.28;;;8.00;99.90;;;;;;4985493;28;20490;-87
2021/11/01 05:31:01;;;;;;;23.33;2.90;;;8.00;99.90;;;;;;5002625;28;20045;-88
2021/11/01 05:33:45;;;;;;;28.05;2.83;;;8.00;99.90;;;;;;5000769;28;20425;-89
2021/11/01 05:36:11;;;;;;;21.73;3.00;;;8.00;99.90;;;;;;5003672;28;20420;-89
2021/11/01 05:38:37;;;;;;;19.02;3.50;;;8.00;99.90;;;;;;5001218;28;20041;-88
2021/11/01 05:41:03;;;;;;;22.65;2.97;;;8.00;99.90;;;;;;4985281;28;20045;-89
2021/11/01 05:43:30;;;;;;;17.25;2.83;;;7.90;99.90;;;;;;5000908;28;20600;-88
2021/11/01 05:45:56;;;;;;;20.15;2.47;;;7.90;99.90;;;;;;5000719;28;20056;-88
2021/11/01 05:48:22;;;;;;;16.35;2.30;;;7.90;99.90;;;;;;5000599;28;20041;-89
2021/11/01 05:50:48;;;;;;;19.65;3.13;;;7.90;99.90;;;;;;5017792;28;20134;-89
2021/11/01 05:53:14;;;;;;;23.75;3.42;;;7.90;99.90;;;;;;5017705;28;20057;-91
2021/11/01 06:15:56;;;;;;;9.77;1.90;;;7.80;99.90;;;;;;5017320;28;20045;-88
2021/11/01 06:18:30;;;;;;;16.67;2.13;;;7.80;99.90;;;;;;4999880;28;20045;-89
2021/11/01 06:20:55;;;;;;;18.40;2.80;;;7.70;99.90;;;;;;5016941;28;20120;-89
2021/11/01 06:23:21;;;;;;;18.08;3.00;;;7.80;99.90;;;;;;5000285;28;20513;-90
2021/11/01 06:25:51;;;;;;;23.10;2.88;;;7.80;99.90;;;;;;5000976;28;20245;-90
2021/11/01 06:28:18;;;;;;;16.08;2.20;;;7.80;99.90;;;;;;5016671;28;20052;-92
2021/11/01 06:31:08;;;;;;;15.80;1.70;;;7.80;99.90;;;;;;5000693;28;20041;-89
2021/11/01 06:57:34;;;;;;;24.05;3.10;;;7.70;99.90;;;;;;5016602;28;20444;-89
2021/11/01 09:01:50;;;;;;;13.60;2.55;;;10.10;99.90;;;;;;5009762;28;20065;-87
2021/11/01 09:28:02;;;;;;;13.25;2.95;;;10.30;99.90;;;;;;4994542;28;20057;-88
2021/11/01 09:36:10;;;;;;;9.55;2.15;;;10.50;99.90;;;;;;5007433;28;20049;-89
2021/11/01 09:41:10;;;;;;;13.10;2.30;;;10.60;99.90;;;;;;4994199;28;20077;-89
2021/11/01 09:43:37;;;;;;;7.43;2.15;;;10.60;99.90;;;;;;4977184;28;20050;-89
2021/11/01 09:46:10;;;;;;;8.75;2.15;;;10.70;99.90;;;;;;5009635;28;20081;-89
2021/11/01 09:48:37;;;;;;;14.10;2.30;;;10.80;99.90;;;;;;4992995;28;20152;-88
2021/11/01 09:51:03;;;;;;;10.60;2.33;;;10.80;99.90;;;;;;5013619;28;20418;-90
2021/11/01 09:53:36;;;;;;;12.18;2.65;;;10.80;99.90;;;;;;4997029;28;20046;-89
2021/11/01 10:01:22;;;;;;;11.88;1.85;;;11.00;99.90;;;;;;4999775;28;20496;-89
2021/11/01 10:03:51;;;;;;;13.15;1.85;;;11.00;99.90;;;;;;5012534;28;20726;-88
2021/11/01 10:06:21;;;;;;;13.38;1.92;;;11.10;99.90;;;;;;5013206;28;20038;-88
2021/11/01 10:08:52;;;;;;;13.85;2.17;;;11.10;99.90;;;;;;4980395;28;20072;-90
2021/11/01 10:11:19;;;;;;;;;;;11.10;99.90;;;;;;4997020;28;20050;-86
2021/11/01 10:13:57;;;;;;;7.50;1.83;;;11.20;99.90;;;;;;5028668;28;19921;-87
2021/11/01 10:19:32;;;;;;;14.63;1.88;;;11.30;99.90;;;;;;5012671;28;20058;-87
2021/11/01 10:22:09;;;;;;;19.55;2.88;;;11.30;99.90;;;;;;4995894;28;20045;-87
2021/11/01 10:24:40;;;;;;;17.08;2.42;;;11.30;99.90;;;;;;5011769;28;20045;-87
2021/11/01 10:27:37;;;;;;;14.85;2.38;;;11.20;99.90;;;;;;5012656;28;20046;-87
2021/11/01 10:30:11;;;;;;;12.07;2.03;;;11.20;99.90;;;;;;5012505;28;20068;-87
2021/11/01 10:32:44;;;;;;;11.27;1.98;;;11.20;99.90;;;;;;4995868;28;20466;-89
2021/11/01 10:35:24;;;;;;;10.18;1.85;;;11.20;99.90;;;;;;4995845;28;20041;-89
2021/11/01 10:38:07;;;;;;;7.85;1.83;;;11.20;99.90;;;;;;5011743;28;20377;-86
2021/11/01 10:40:35;;;;;;;7.10;1.80;;;11.20;99.90;;;;;;5013431;28;20565;-86
2021/11/01 10:43:19;;;;;;;11.73;1.80;;;11.20;99.90;;;;;;4979724;28;20046;-86
2021/11/01 10:46:20;;;;;;;8.38;2.55;;;11.30;99.90;;;;;;4995113;28;20049;-88
2021/11/01 11:11:30;;;;;;;9.15;1.77;;;11.50;99.90;;;;;;5012782;28;20400;-87
2021/11/01 11:14:09;;;;;;;10.88;1.55;;;11.50;99.90;;;;;;4980092;28;20054;-86
2021/11/01 11:19:19;;;;;;;7.55;1.85;;;11.60;99.90;;;;;;4994902;28;20488;-87
2021/11/01 11:27:35;;;;;;;10.35;2.58;;;11.60;99.90;;;;;;5016966;28;20056;-86
2021/11/01 11:30:42;;;;;;;9.43;2.30;;;11.70;99.90;;;;;;5016400;28;20045;-86
2021/11/01 11:47:38;;;;;;;4.80;1.15;;;11.90;99.90;;;;;;5014076;28;20077;-88
2021/11/01 11:50:32;;;;;;;7.25;1.63;;;11.90;99.90;;;;;;5031096;28;20215;-87
2021/11/01 11:53:27;;;;;;;13.85;1.50;;;12.00;99.90;;;;;;5011260;28;20092;-86
2021/11/01 11:56:07;;;;;;;15.40;2.88;;;11.90;99.90;;;;;;4984528;28;20049;-87
2021/11/01 11:58:43;;;;;;;9.48;2.28;;;12.00;99.90;;;;;;4997202;28;20064;-87
2021/11/01 12:01:33;;;;;;;10.32;1.75;;;11.90;99.90;;;;;;5013750;28;20045;-86
2021/11/01 12:04:04;;;;;;;6.83;1.60;;;11.90;99.90;;;;;;5013321;28;20038;-86
2021/11/01 12:07:12;;;;;;;4.47;1.20;;;11.90;99.90;;;;;;4982324;28;20119;-85
2021/11/01 12:10:02;;;;;;;8.23;1.17;;;11.90;99.90;;;;;;5013716;28;20099;-85
2021/11/01 12:18:10;;;;;;;6.90;1.67;;;12.20;99.90;;;;;;4999522;28;20043;-86
2021/11/01 12:20:39;;;;;;;9.65;1.58;;;12.20;99.90;;;;;;4997350;28;20483;-84
2021/11/01 12:23:06;;;;;;;6.05;1.40;;;12.30;99.90;;;;;;4980477;28;20055;-84
2021/11/01 12:25:40;;;;;;;5.90;1.45;;;12.30;99.90;;;;;;5031347;28;20042;-85
2021/11/01 12:28:12;;;;;;;6.63;1.50;;;12.30;99.90;;;;;;4996619;28;20193;-84
2021/11/01 12:30:42;;;;;;;8.45;1.10;;;12.30;99.90;;;;;;4996841;28;20045;-85
2021/11/01 12:33:09;;;;;;;6.75;1.33;;;12.30;99.90;;;;;;4996985;28;20037;-85
2021/11/01 12:35:42;;;;;;;9.07;1.25;;;12.30;99.90;;;;;;4996951;28;20543;-85
2021/11/01 12:38:12;;;;;;;6.55;2.08;;;12.40;99.90;;;;;;5012775;28;20642;-88
2021/11/01 12:59:48;;;;;;;5.25;1.20;;;13.00;99.90;;;;;;4980903;28;20534;-87
2021/11/01 13:02:29;;;;;;;9.55;3.55;;;13.10;99.90;;;;;;5013120;28;20049;-87
2021/11/01 13:04:57;;;;;;;9.77;2.10;;;13.10;99.90;;;;;;4982634;28;20069;-87
2021/11/01 13:10:24;;;;;;;12.43;1.40;;;13.20;99.90;;;;;;5013186;28;20051;-86
2021/11/01 13:18:12;;;;;;;6.40;1.60;;;13.40;99.90;;;;;;5012799;28;20053;-87
2021/11/01 13:20:47;;;;;;;4.88;1.38;;;13.40;99.90;;;;;;4981568;28;20080;-86
2021/11/01 13:23:14;;;;;;;5.85;1.20;;;13.50;99.90;;;;;;5009355;28;20057;-86
2021/11/01 13:37:35;;;;;;;11.73;1.95;;;13.60;99.90;;;;;;5013324;28;20044;-88
2021/11/01 13:40:07;;;;;;;7.85;1.20;;;13.70;99.90;;;;;;4997233;28;20057;-86
2021/11/01 13:42:33;;;;;;;5.80;1.20;;;13.70;99.90;;;;;;4997615;28;20041;-86
2021/11/01 13:45:16;;;;;;;3.60;1.05;;;13.80;99.90;;;;;;5013112;28;20060;-86
2021/11/01 13:47:46;;;;;;;7.47;1.35;;;13.80;99.90;;;;;;5013682;28;20507;-86
2021/11/01 13:50:14;;;;;;;2.28;0.85;;;13.90;99.90;;;;;;5013145;28;20153;-86
2021/11/01 13:52:41;;;;;;;5.13;1.00;;;13.90;99.90;;;;;;5013873;28;20373;-86
2021/11/01 13:55:20;;;;;;;6.47;1.02;;;14.00;99.90;;;;;;4980840;28;20084;-86
2021/11/01 13:57:55;;;;;;;6.50;1.33;;;14.00;99.90;;;;;;4997154;28;20033;-86
2021/11/01 14:11:27;;;;;;;4.30;0.80;;;14.20;99.90;;;;;;5012852;28;20076;-86
2021/11/01 14:16:23;;;;;;;9.13;1.00;;;14.30;99.90;;;;;;4996376;28;20057;-86
2021/11/01 15:41:05;;;;;;;7.93;1.10;;;12.60;99.90;;;;;;5001039;28;20141;-87
2021/11/01 16:19:09;;;;;;;6.22;1.42;;;10.50;99.90;;;;;;4958627;28;20065;-87
2021/11/01 16:21:35;;;;;;;4.20;1.17;;;10.40;99.90;;;;;;4979527;28;20052;-86
2021/11/01 16:24:01;;;;;;;9.90;1.52;;;10.30;99.90;;;;;;5011702;28;20045;-85
2021/11/01 16:26:29;;;;;;;4.25;1.10;;;10.20;99.90;;;;;;5011741;28;20041;-87
2021/11/01 16:32:03;;;;;;;10.52;1.70;;;10.00;99.90;;;;;;4999264;28;20084;-87
2021/11/01 16:34:34;;;;;;;11.65;1.42;;;9.80;99.90;;;;;;5010931;28;20177;-86
2021/11/01 16:39:52;;;;;;;7.03;1.70;;;9.60;99.90;;;;;;5013305;28;20063;-86
2021/11/01 16:42:23;;;;;;;4.77;1.00;;;9.50;99.90;;;;;;5012612;28;20084;-86
2021/11/01 16:44:49;;;;;;;5.65;1.33;;;9.40;99.90;;;;;;5013738;28;20045;-85
2021/11/01 16:47:17;;;;;;;11.85;1.50;;;9.40;99.90;;;;;;5013189;28;20041;-86
2021/11/01 16:49:43;;;;;;;5.80;1.52;;;9.30;99.90;;;;;;5013250;28;20474;-86
2021/11/01 16:52:16;;;;;;;13.20;2.15;;;9.30;99.90;;;;;;4997173;28;20049;-87
2021/11/01 16:54:51;;;;;;;10.95;1.40;;;9.20;99.90;;;;;;5013432;28;20053;-87
2021/11/01 16:57:28;;;;;;;9.40;1.50;;;9.10;99.90;;;;;;4996585;28;20033;-86
2021/11/01 17:00:11;;;;;;;5.40;1.63;;;9.10;99.90;;;;;;4999698;28;20049;-86
2021/11/01 17:02:52;;;;;;;5.93;1.27;;;9.00;99.90;;;;;;5017347;28;20546;-86
2021/11/01 17:08:25;;;;;;;8.43;1.58;;;9.00;99.90;;;;;;5017289;28;20431;-86
2021/11/01 18:40:21;;;;;;;5.32;1.48;;;8.00;99.90;;;;;;4955892;28;20469;-86
2021/11/01 18:51:02;;;;;;;9.10;1.55;;;8.10;99.90;;;;;;5015249;28;20058;-86
2021/11/01 18:53:44;;;;;;;15.35;3.95;;;8.10;99.90;;;;;;5015219;28;20384;-87
2021/11/01 18:56:12;;;;;;;6.38;1.77;;;8.10;99.90;;;;;;5015158;28;20041;-86
2021/11/01 18:58:40;;;;;;;16.35;2.03;;;8.10;99.90;;;;;;5014981;28;20477;-84
2021/11/01 19:01:11;;;;;;;10.15;1.77;;;8.10;99.90;;;;;;5014857;28;20048;-84
2021/11/01 19:03:45;;;;;;;6.65;1.48;;;8.20;99.90;;;;;;5010910;28;20050;-85
2021/11/01 19:09:11;;;;;;;10.23;1.80;;;8.20;99.90;;;;;;5011560;28;20041;-84
2021/11/01 19:12:13;;;;;;;11.57;2.33;;;8.20;99.90;;;;;;5010822;28;20053;-84
2021/11/01 20:12:20;;;;;;;9.10;1.40;;;7.60;99.90;;;;;;5013771;28;20554;-86
2021/11/01 21:26:52;;;;;;;5.20;1.75;;;7.10;99.90;;;;;;5012771;28;20137;-87
2021/11/01 21:29:18;;;;;;;11.27;2.15;;;7.10;99.90;;;;;;5013180;28;20041;-86
2021/11/01 21:31:44;;;;;;;9.65;1.70;;;7.00;99.90;;;;;;4996354;28;20423;-87
2021/11/01 21:34:15;;;;;;;11.27;1.70;;;7.00;99.90;;;;;;5013037;28;20055;-87
2021/11/01 21:36:41;;;;;;;9.30;2.72;;;7.00;99.90;;;;;;4997409;28;20053;-86
2021/11/01 21:39:06;;;;;;;11.25;1.50;;;7.00;99.90;;;;;;5013922;28;20501;-86
2021/11/01 21:41:32;;;;;;;11.43;2.35;;;6.90;99.90;;;;;;5013250;28;20049;-86
2021/11/01 21:43:58;;;;;;;8.55;1.83;;;7.00;99.90;;;;;;4980015;28;20106;-88
2021/11/01 21:46:24;;;;;;;7.75;1.67;;;6.90;99.90;;;;;;4999053;28;20041;-87
2021/11/01 21:48:51;;;;;;;4.82;1.75;;;6.90;99.90;;;;;;4999388;28;20037;-86
2021/11/01 21:51:17;;;;;;;4.53;1.15;;;6.90;99.90;;;;;;5016604;28;20053;-87
2021/11/01 21:53:54;;;;;;;6.32;1.27;;;6.90;99.90;;;;;;5015810;28;20045;-85
2021/11/01 21:56:20;;;;;;;4.88;1.30;;;6.90;99.90;;;;;;5016880;28;20067;-83
2021/11/01 22:17:41;;;;;;;5.53;1.48;;;6.60;99.90;;;;;;5000354;28;20049;-85
2021/11/01 22:20:13;;;;;;;8.60;2.38;;;6.60;99.90;;;;;;4998951;28;20033;-85
2021/11/01 22:22:45;;;;;;;6.47;1.50;;;6.50;99.90;;;;;;4998201;28;20038;-89
2021/11/01 22:25:21;;;;;;;5.30;1.60;;;6.50;99.90;;;;;;5014628;28;20512;-85
2021/11/01 22:33:36;;;;;;;1.67;1.27;;;6.30;99.90;;;;;;5000656;28;20046;-85
2021/11/01 22:41:41;;;;;;;3.10;1.52;;;6.20;99.90;;;;;;5014282;28;20046;-86
2021/11/01 22:47:26;;;;;;;4.00;1.67;;;6.00;99.90;;;;;;4998376;28;20461;-87
2021/11/01 22:57:32;;;;;;;9.30;2.20;;;5.90;99.90;;;;;;4998420;28;20111;-85
2021/11/01 22:59:59;;;;;;;12.63;2.35;;;5.90;99.90;;;;;;5013364;28;20115;-85
2021/11/01 23:02:25;;;;;;;7.00;2.00;;;5.90;99.90;;;;;;5014394;28;20042;-85
2021/11/01 23:05:05;;;;;;;2.88;2.10;;;5.90;99.90;;;;;;4998770;28;20037;-86
2021/11/01 23:32:08;;;;;;;11.98;3.13;;;5.90;99.90;;;;;;5014465;28;20045;-85
2021/11/01 23:34:34;;;;;;;8.57;2.85;;;5.90;99.90;;;;;;4998408;28;20144;-85
2021/11/01 23:36:59;;;;;;;10.50;2.78;;;5.90;99.90;;;;;;4997919;28;20084;-86
2021/11/01 23:39:25;;;;;;;14.75;3.40;;;5.90;99.90;;;;;;4982525;28;20045;-85
2021/11/01 23:41:51;;;;;;;10.63;3.10;;;5.80;99.90;;;;;;4998174;28;20064;-85
2021/11/01 23:44:18;;;;;;;9.07;3.00;;;5.80;99.90;;;;;;4982479;28;20513;-85
2021/11/01 23:46:44;;;;;;;5.05;2.80;;;5.80;99.90;;;;;;5014644;28;20046;-86
2021/11/01 23:49:10;;;;;;;6.30;3.08;;;5.80;99.90;;;;;;4998052;28;20462;-86
2021/11/01 23:51:37;;;;;;;9.00;3.72;;;5.80;99.90;;;;;;4982094;28;20094;-84
2021/11/01 23:56:47;;;;;;;7.35;3.80;;;5.70;99.90;;;;;;5014274;28;20120;-85
2021/11/01 23:59:12;;;;;;;9.60;3.60;;;5.70;99.90;;;;;;4998234;28;20056;-84
